createdAt,value
2022-09-28T00:01:17.061Z,17.88
2022-09-28T00:03:46.688Z,17.86
2022-09-28T00:06:17.236Z,17.83
2022-09-28T00:08:45.333Z,17.83
2022-09-28T00:11:15.485Z,17.75
2022-09-28T00:13:44.688Z,17.70
2022-09-28T00:16:14.963Z,17.68
2022-09-28T00:18:43.703Z,17.70
2022-09-28T00:21:15.494Z,17.74
2022-09-28T00:23:58.241Z,17.73
2022-09-28T00:26:28.360Z,17.78
2022-09-28T00:28:58.657Z,17.75
2022-09-28T00:31:27.496Z,17.72
2022-09-28T00:33:56.952Z,17.70
2022-09-28T00:36:28.220Z,17.69
2022-09-28T00:38:56.560Z,17.67
2022-09-28T00:41:25.281Z,17.65
2022-09-28T00:43:53.382Z,17.60
2022-09-28T00:46:28.133Z,17.58
2022-09-28T00:49:00.337Z,17.52
2022-09-28T00:51:31.349Z,17.54
2022-09-28T00:54:02.528Z,17.55
2022-09-28T00:56:34.367Z,17.53
2022-09-28T00:59:04.784Z,17.50
2022-09-28T01:01:32.909Z,17.47
2022-09-28T01:04:02.817Z,17.47
2022-09-28T01:06:34.968Z,17.42
2022-09-28T01:09:05.768Z,17.45
2022-09-28T01:11:36.538Z,17.46
2022-09-28T01:14:05.211Z,17.40
2022-09-28T01:16:42.675Z,17.42
2022-09-28T01:19:38.394Z,17.42
2022-09-28T01:22:24.227Z,17.41
2022-09-28T01:25:01.710Z,17.45
2022-09-28T01:27:36.243Z,17.44
2022-09-28T01:30:07.478Z,17.44
2022-09-28T01:32:43.376Z,17.42
2022-09-28T01:35:15.086Z,17.41
2022-09-28T01:37:47.675Z,17.39
2022-09-28T01:40:17.599Z,17.37
2022-09-28T01:42:52.034Z,17.41
2022-09-28T01:45:24.377Z,17.42
2022-09-28T01:47:55.315Z,17.43
2022-09-28T01:50:27.163Z,17.44
2022-09-28T01:53:00.674Z,17.44
2022-09-28T01:55:33.659Z,17.42
2022-09-28T01:58:08.407Z,17.39
2022-09-28T02:00:41.581Z,17.36
2022-09-28T02:03:16.841Z,17.36
2022-09-28T02:05:49.758Z,17.38
2022-09-28T02:08:25.800Z,17.42
2022-09-28T02:10:59.025Z,17.43
2022-09-28T02:13:32.765Z,17.38
2022-09-28T02:16:06.521Z,17.40
2022-09-28T02:18:35.106Z,17.39
2022-09-28T02:21:10.633Z,17.40
2022-09-28T02:23:42.707Z,17.38
2022-09-28T02:26:13.620Z,17.39
2022-09-28T02:28:43.020Z,17.39
2022-09-28T02:31:11.252Z,17.37
2022-09-28T02:33:43.152Z,17.32
2022-09-28T02:36:11.462Z,17.34
2022-09-28T02:38:40.965Z,17.30
2022-09-28T02:41:19.214Z,17.30
2022-09-28T02:43:59.453Z,17.25
2022-09-28T02:46:33.574Z,17.23
2022-09-28T02:49:30.116Z,17.19
2022-09-28T02:52:15.091Z,17.13
2022-09-28T02:55:14.555Z,17.11
2022-09-28T02:57:53.323Z,17.08
2022-09-28T03:00:25.298Z,17.05
2022-09-28T03:03:02.695Z,17.03
2022-09-28T03:05:40.061Z,17.02
2022-09-28T03:08:13.824Z,17.03
2022-09-28T03:10:47.564Z,16.98
2022-09-28T03:13:17.211Z,16.97
2022-09-28T03:15:48.970Z,17.02
2022-09-28T03:18:17.297Z,17.01
2022-09-28T03:20:45.280Z,17.02
2022-09-28T03:23:24.386Z,17.05
2022-09-28T03:25:53.230Z,17.06
2022-09-28T03:28:22.059Z,17.09
2022-09-28T03:30:51.884Z,17.09
2022-09-28T03:33:20.114Z,17.09
2022-09-28T03:35:49.222Z,17.11
2022-09-28T03:38:17.216Z,17.17
2022-09-28T03:40:45.495Z,17.16
2022-09-28T03:43:13.579Z,17.22
2022-09-28T03:45:41.541Z,17.21
2022-09-28T03:48:11.079Z,17.28
2022-09-28T03:50:39.113Z,17.23
2022-09-28T03:53:07.109Z,17.25
2022-09-28T03:55:35.125Z,17.27
2022-09-28T03:58:03.174Z,17.27
2022-09-28T04:00:31.201Z,17.23
2022-09-28T04:02:59.176Z,17.23
2022-09-28T04:05:28.675Z,17.20
2022-09-28T04:08:00.458Z,17.23
2022-09-28T04:10:28.639Z,17.21
2022-09-28T04:12:57.290Z,17.25
2022-09-28T04:15:25.686Z,17.24
2022-09-28T04:17:53.699Z,17.23
2022-09-28T04:20:22.288Z,17.23
2022-09-28T04:22:51.862Z,17.23
2022-09-28T04:25:19.863Z,17.27
2022-09-28T04:28:04.959Z,17.26
2022-09-28T04:30:33.029Z,17.23
2022-09-28T04:33:01.014Z,17.21
2022-09-28T04:35:29.313Z,17.21
2022-09-28T04:38:01.850Z,17.21
2022-09-28T04:40:29.983Z,17.17
2022-09-28T04:42:58.412Z,17.17
2022-09-28T04:45:27.122Z,17.13
2022-09-28T04:47:55.807Z,17.15
2022-09-28T04:50:23.877Z,17.16
2022-09-28T04:52:51.832Z,17.13
2022-09-28T04:55:21.708Z,17.15
2022-09-28T04:57:49.627Z,17.17
2022-09-28T05:00:18.175Z,17.16
2022-09-28T05:02:46.198Z,17.18
2022-09-28T05:05:14.899Z,17.19
2022-09-28T05:07:43.009Z,17.16
2022-09-28T05:10:11.280Z,17.20
2022-09-28T05:12:40.749Z,17.24
2022-09-28T05:15:09.237Z,17.25
2022-09-28T05:17:37.327Z,17.29
2022-09-28T05:20:06.021Z,17.32
2022-09-28T05:22:34.452Z,17.30
2022-09-28T05:25:03.015Z,17.32
2022-09-28T05:27:31.218Z,17.26
2022-09-28T05:30:00.617Z,17.24
2022-09-28T05:32:28.636Z,17.29
2022-09-28T05:34:57.045Z,17.28
2022-09-28T05:37:25.018Z,17.25
2022-09-28T05:39:53.211Z,17.30
2022-09-28T05:42:21.249Z,17.23
2022-09-28T05:44:49.155Z,17.29
2022-09-28T05:47:18.626Z,17.24
2022-09-28T05:49:47.678Z,17.24
2022-09-28T05:52:15.754Z,17.24
2022-09-28T05:54:43.821Z,17.28
2022-09-28T05:57:11.998Z,17.29
2022-09-28T05:59:40.105Z,17.27
2022-09-28T06:02:08.838Z,17.29
2022-09-28T06:04:40.672Z,17.26
2022-09-28T06:07:08.694Z,17.28
2022-09-28T06:09:36.891Z,17.24
2022-09-28T06:12:04.836Z,17.24
2022-09-28T06:14:32.923Z,17.17
2022-09-28T06:17:01.185Z,17.09
2022-09-28T06:19:29.256Z,17.10
2022-09-28T06:21:59.472Z,16.99
2022-09-28T06:24:27.546Z,16.95
2022-09-28T06:26:55.604Z,16.93
2022-09-28T06:29:23.630Z,16.87
2022-09-28T06:31:51.686Z,16.84
2022-09-28T06:34:21.522Z,16.82
2022-09-28T06:36:49.613Z,16.81
2022-09-28T06:39:19.298Z,16.79
2022-09-28T06:41:47.524Z,16.79
2022-09-28T06:44:15.601Z,16.72
2022-09-28T06:46:43.677Z,16.77
2022-09-28T06:49:13.402Z,16.74
2022-09-28T06:51:44.196Z,16.70
2022-09-28T06:54:12.453Z,16.68
2022-09-28T06:56:41.922Z,16.61
2022-09-28T06:59:10.069Z,16.48
2022-09-28T07:01:38.047Z,16.41
2022-09-28T07:04:06.427Z,16.32
2022-09-28T07:06:34.478Z,16.22
2022-09-28T07:09:23.764Z,16.20
2022-09-28T07:11:55.936Z,16.22
2022-09-28T07:14:42.030Z,16.22
2022-09-28T07:17:14.380Z,16.22
2022-09-28T07:19:42.737Z,16.22
2022-09-28T07:22:18.554Z,16.29
2022-09-28T07:24:49.070Z,16.29
2022-09-28T07:27:20.059Z,16.37
2022-09-28T07:29:48.035Z,16.49
2022-09-28T07:32:16.101Z,16.62
2022-09-28T07:34:44.875Z,16.75
2022-09-28T07:37:13.661Z,16.86
2022-09-28T07:39:59.533Z,16.91
2022-09-28T07:42:30.103Z,16.99
2022-09-28T07:45:00.811Z,17.07
2022-09-28T07:47:34.041Z,17.18
2022-09-28T07:50:02.890Z,17.30
2022-09-28T07:52:31.045Z,17.37
2022-09-28T07:55:02.183Z,17.47
2022-09-28T07:57:35.624Z,17.53
2022-09-28T08:00:05.853Z,17.62
2022-09-28T08:02:35.633Z,17.64
2022-09-28T08:05:03.875Z,17.70
2022-09-28T08:07:32.515Z,17.73
2022-09-28T08:10:00.594Z,17.82
2022-09-28T08:12:28.804Z,17.90
2022-09-28T08:15:00.408Z,17.92
2022-09-28T08:17:28.778Z,17.95
2022-09-28T08:20:14.128Z,17.97
2022-09-28T08:22:42.027Z,18.04
2022-09-28T08:25:10.604Z,18.06
2022-09-28T08:27:38.530Z,18.07
2022-09-28T08:30:10.335Z,18.08
2022-09-28T08:32:38.447Z,18.04
2022-09-28T08:35:07.037Z,18.05
2022-09-28T08:37:35.097Z,18.06
2022-09-28T08:40:03.652Z,18.04
2022-09-28T08:42:36.904Z,18.07
2022-09-28T08:45:12.904Z,18.07
2022-09-28T08:48:08.055Z,18.07
2022-09-28T08:50:47.480Z,18.05
2022-09-28T08:53:31.387Z,17.97
2022-09-28T08:56:01.863Z,17.98
2022-09-28T08:58:36.958Z,18.05
2022-09-28T09:01:08.657Z,18.20
2022-09-28T09:03:42.092Z,18.26
2022-09-28T09:06:23.391Z,18.28
2022-09-28T09:09:02.609Z,18.28
2022-09-28T09:11:45.739Z,18.30
2022-09-28T09:14:38.120Z,18.32
2022-09-28T09:17:19.714Z,18.41
2022-09-28T09:19:54.319Z,18.57
2022-09-28T09:22:35.085Z,18.63
2022-09-28T09:25:16.371Z,18.70
2022-09-28T09:28:00.029Z,18.71
2022-09-28T09:30:31.808Z,18.68
2022-09-28T09:33:24.386Z,18.70
2022-09-28T09:36:08.837Z,18.77
2022-09-28T09:38:51.411Z,18.85
2022-09-28T09:41:32.319Z,18.85
2022-09-28T09:44:16.233Z,18.83
2022-09-28T09:46:50.995Z,18.85
2022-09-28T09:49:26.380Z,18.84
2022-09-28T09:52:01.080Z,18.87
2022-09-28T09:54:35.461Z,18.84
2022-09-28T09:57:07.793Z,18.76
2022-09-28T09:59:40.227Z,18.78
2022-09-28T10:02:23.944Z,18.73
2022-09-28T10:04:57.142Z,18.80
2022-09-28T10:07:29.934Z,18.83
2022-09-28T10:10:01.311Z,18.84
2022-09-28T10:12:31.210Z,18.94
2022-09-28T10:14:59.365Z,19.02
2022-09-28T10:17:28.009Z,19.10
2022-09-28T10:19:58.082Z,19.21
2022-09-28T10:22:28.659Z,19.21
2022-09-28T10:24:59.011Z,19.13
2022-09-28T10:27:32.002Z,18.98
2022-09-28T10:30:03.184Z,18.79
2022-09-28T10:32:39.347Z,18.66
2022-09-28T10:35:22.811Z,18.57
2022-09-28T10:37:54.439Z,18.54
2022-09-28T10:40:34.684Z,18.47
2022-09-28T10:43:04.269Z,18.37
2022-09-28T10:45:37.397Z,18.22
2022-09-28T10:48:15.143Z,18.12
2022-09-28T10:50:44.810Z,18.10
2022-09-28T10:53:19.552Z,18.10
2022-09-28T10:55:59.857Z,18.16
2022-09-28T10:58:30.710Z,18.31
2022-09-28T11:01:05.196Z,18.42
2022-09-28T11:03:34.204Z,18.51
2022-09-28T11:06:06.923Z,18.63
2022-09-28T11:08:38.868Z,18.70
2022-09-28T11:11:10.083Z,18.82
2022-09-28T11:13:47.271Z,18.84
2022-09-28T11:16:24.319Z,18.91
2022-09-28T11:18:52.619Z,18.96
2022-09-28T11:21:25.125Z,18.98
2022-09-28T11:24:05.933Z,18.94
2022-09-28T11:26:43.030Z,18.91
2022-09-28T11:29:35.934Z,18.96
2022-09-28T11:32:07.138Z,19.09
2022-09-28T11:34:58.077Z,19.10
2022-09-28T11:38:07.041Z,19.07
2022-09-28T11:40:48.537Z,18.89
2022-09-28T11:43:33.297Z,18.73
2022-09-28T11:46:10.394Z,18.64
2022-09-28T11:48:43.422Z,18.45
2022-09-28T11:51:19.592Z,18.39
2022-09-28T11:53:53.901Z,18.37
2022-09-28T11:56:34.922Z,18.37
2022-09-28T11:59:10.033Z,18.33
2022-09-28T12:01:44.628Z,18.25
2022-09-28T12:04:17.554Z,18.17
2022-09-28T12:06:51.436Z,18.12
2022-09-28T12:09:26.553Z,18.07
2022-09-28T12:11:59.547Z,18.05
2022-09-28T12:14:32.148Z,18.09
2022-09-28T12:17:07.892Z,18.15
2022-09-28T12:19:42.401Z,18.23
2022-09-28T12:22:17.309Z,18.30
2022-09-28T12:24:50.596Z,18.38
2022-09-28T12:27:25.101Z,18.53
2022-09-28T12:30:01.946Z,18.58
2022-09-28T12:32:36.134Z,18.64
2022-09-28T12:35:11.728Z,18.72
2022-09-28T12:37:54.518Z,18.74
2022-09-28T12:40:40.835Z,18.78
2022-09-28T12:43:34.598Z,18.87
2022-09-28T12:46:21.254Z,18.96
2022-09-28T12:52:00.676Z,19.36
2022-09-28T12:54:53.978Z,19.41
2022-09-28T12:57:38.507Z,19.38
2022-09-28T13:00:11.755Z,19.29
2022-09-28T13:03:15.105Z,19.28
2022-09-28T13:06:10.496Z,19.22
2022-09-28T13:08:49.638Z,19.16
2022-09-28T13:11:31.995Z,19.09
2022-09-28T13:14:33.911Z,18.89
2022-09-28T13:17:10.053Z,18.68
2022-09-28T13:19:45.236Z,18.60
2022-09-28T13:22:29.373Z,18.56
2022-09-28T13:25:03.350Z,18.62
2022-09-28T13:27:36.620Z,18.64
2022-09-28T13:30:07.961Z,18.68
2022-09-28T13:32:39.042Z,18.67
2022-09-28T13:35:07.688Z,18.64
2022-09-28T13:37:35.719Z,18.69
2022-09-28T13:40:06.223Z,18.72
2022-09-28T13:43:06.799Z,18.75
2022-09-28T13:46:01.328Z,18.76
2022-09-28T13:48:46.232Z,18.76
2022-09-28T13:51:27.529Z,18.76
2022-09-28T13:54:19.098Z,18.80
2022-09-28T13:56:53.058Z,18.83
2022-09-28T13:59:27.388Z,18.90
2022-09-28T14:02:06.562Z,18.93
2022-09-28T14:04:56.439Z,18.89
2022-09-28T14:10:20.983Z,18.93
2022-09-28T14:12:51.789Z,18.96
2022-09-28T14:15:43.502Z,18.99
2022-09-28T14:18:34.727Z,18.94
2022-09-28T14:21:22.621Z,18.80
2022-09-28T14:24:03.979Z,18.56
2022-09-28T14:27:11.286Z,18.31
2022-09-28T14:29:40.685Z,18.20
2022-09-28T14:32:25.806Z,18.17
2022-09-28T14:35:00.805Z,18.27
2022-09-28T14:37:50.292Z,18.45
2022-09-28T14:40:37.442Z,18.58
2022-09-28T14:43:24.551Z,18.52
2022-09-28T14:46:14.649Z,18.55
2022-09-28T14:48:49.137Z,18.63
2022-09-28T14:51:58.467Z,19.14
2022-09-28T14:54:28.704Z,19.24
2022-09-28T14:57:09.424Z,20.02
2022-09-28T14:59:43.554Z,20.81
2022-09-28T15:02:20.495Z,21.15
2022-09-28T15:04:52.003Z,21.70
2022-09-28T15:07:25.072Z,21.80
2022-09-28T15:09:54.961Z,21.71
2022-09-28T15:12:27.830Z,21.49
2022-09-28T15:14:59.238Z,21.13
2022-09-28T15:17:30.345Z,20.79
2022-09-28T15:20:26.373Z,20.51
2022-09-28T15:22:58.636Z,20.20
2022-09-28T15:25:29.390Z,20.22
2022-09-28T15:27:59.612Z,20.35
2022-09-28T15:30:31.834Z,20.39
2022-09-28T15:33:15.781Z,20.17
2022-09-28T15:35:44.163Z,19.96
2022-09-28T15:38:18.098Z,19.87
2022-09-28T15:40:47.686Z,19.78
2022-09-28T15:43:27.099Z,19.79
2022-09-28T15:46:03.025Z,19.83
2022-09-28T15:48:35.252Z,19.75
2022-09-28T15:51:11.004Z,19.71
2022-09-28T15:53:58.382Z,19.58
2022-09-28T15:56:27.146Z,19.45
2022-09-28T15:59:19.671Z,19.41
2022-09-28T16:01:49.474Z,19.36
2022-09-28T16:04:39.626Z,19.33
2022-09-28T16:07:25.679Z,19.17
2022-09-28T16:10:01.305Z,19.17
2022-09-28T16:12:41.664Z,19.13
2022-09-28T16:15:20.410Z,19.20
2022-09-28T16:17:55.225Z,19.19
2022-09-28T16:20:29.531Z,19.24
2022-09-28T16:23:03.658Z,19.31
2022-09-28T16:25:35.923Z,19.45
2022-09-28T16:28:04.612Z,19.44
2022-09-28T16:30:34.744Z,19.41
2022-09-28T16:33:05.379Z,19.39
2022-09-28T16:35:50.226Z,19.41
2022-09-28T16:38:19.877Z,19.45
2022-09-28T16:40:51.406Z,19.38
2022-09-28T16:43:25.350Z,19.53
2022-09-28T16:45:58.215Z,19.67
2022-09-28T16:48:27.912Z,19.64
2022-09-28T16:50:55.991Z,19.57
2022-09-28T16:53:38.600Z,19.39
2022-09-28T16:56:08.609Z,19.12
2022-09-28T16:58:39.180Z,18.93
2022-09-28T17:01:08.777Z,18.72
2022-09-28T17:03:36.937Z,18.63
2022-09-28T17:06:06.548Z,18.54
2022-09-28T17:08:35.631Z,18.48
2022-09-28T17:11:24.202Z,18.45
2022-09-28T17:13:56.916Z,18.62
2022-09-28T17:16:58.209Z,18.90
2022-09-28T17:19:26.689Z,19.18
2022-09-28T17:21:55.451Z,19.18
2022-09-28T17:24:23.587Z,18.83
2022-09-28T17:26:53.124Z,18.27
2022-09-28T17:29:23.736Z,17.78
2022-09-28T17:31:52.175Z,17.35
2022-09-28T17:34:22.008Z,17.06
2022-09-28T17:36:52.908Z,16.85
2022-09-28T17:39:21.331Z,16.66
2022-09-28T17:41:49.342Z,16.45
2022-09-28T17:44:17.399Z,16.32
2022-09-28T17:46:49.694Z,16.22
2022-09-28T17:49:18.769Z,16.09
2022-09-28T17:51:47.026Z,16.03
2022-09-28T17:54:19.405Z,15.99
2022-09-28T17:56:47.490Z,15.95
2022-09-28T17:59:18.516Z,15.95
2022-09-28T18:01:48.571Z,15.99
2022-09-28T18:04:33.782Z,16.03
2022-09-28T18:07:05.322Z,16.06
2022-09-28T18:09:33.278Z,16.11
2022-09-28T18:12:05.096Z,16.11
2022-09-28T18:14:33.239Z,16.10
2022-09-28T18:17:02.843Z,16.08
2022-09-28T18:19:32.308Z,16.03
2022-09-28T18:22:01.556Z,15.98
2022-09-28T18:24:29.735Z,15.89
2022-09-28T18:26:57.762Z,15.82
2022-09-28T18:29:27.340Z,15.81
2022-09-28T18:31:57.971Z,15.73
2022-09-28T18:34:27.443Z,15.70
2022-09-28T18:36:55.343Z,15.67
2022-09-28T18:39:23.908Z,15.64
2022-09-28T18:41:51.903Z,15.64
2022-09-28T18:44:20.062Z,15.71
2022-09-28T18:46:48.114Z,15.71
2022-09-28T18:49:16.189Z,15.72
2022-09-28T18:51:45.626Z,15.72
2022-09-28T18:54:13.683Z,15.78
2022-09-28T18:56:41.736Z,15.79
2022-09-28T18:59:12.326Z,15.87
2022-09-28T19:01:42.004Z,15.92
2022-09-28T19:04:11.808Z,15.96
2022-09-28T19:06:41.764Z,16.01
2022-09-28T19:09:12.415Z,16.07
2022-09-28T19:11:40.498Z,16.18
2022-09-28T19:14:11.154Z,16.27
2022-09-28T19:16:39.244Z,16.30
2022-09-28T19:19:08.114Z,16.27
2022-09-28T19:21:36.353Z,16.32
2022-09-28T19:24:05.880Z,16.34
2022-09-28T19:26:35.486Z,16.33
2022-09-28T19:29:03.515Z,16.35
2022-09-28T19:31:32.705Z,16.40
2022-09-28T19:34:00.742Z,16.43
2022-09-28T19:36:29.674Z,16.45
2022-09-28T19:39:02.948Z,16.50
2022-09-28T19:41:44.573Z,16.55
2022-09-28T19:44:24.703Z,16.61
2022-09-28T19:46:54.711Z,16.66
2022-09-28T19:49:23.973Z,16.65
2022-09-28T19:52:11.957Z,16.68
2022-09-28T19:54:43.918Z,16.70
2022-09-28T19:57:12.622Z,16.68
2022-09-28T19:59:42.819Z,16.60
2022-09-28T20:02:11.845Z,16.58
2022-09-28T20:04:42.689Z,16.57
2022-09-28T20:07:10.770Z,16.53
2022-09-28T20:09:38.909Z,16.44
2022-09-28T20:12:07.027Z,16.38
2022-09-28T20:14:38.252Z,16.32
2022-09-28T20:17:10.585Z,16.22
2022-09-28T20:19:38.630Z,16.17
2022-09-28T20:22:06.579Z,16.10
2022-09-28T20:24:34.498Z,16.10
2022-09-28T20:27:02.951Z,16.09
2022-09-28T20:29:33.479Z,16.09
2022-09-28T20:32:02.398Z,16.09
2022-09-28T20:34:33.631Z,16.09
2022-09-28T20:37:01.722Z,16.05
2022-09-28T20:39:29.738Z,16.04
2022-09-28T20:41:57.742Z,15.99
2022-09-28T20:44:25.733Z,15.94
2022-09-28T20:46:53.820Z,15.93
2022-09-28T20:49:21.825Z,15.95
2022-09-28T20:51:51.295Z,15.94
2022-09-28T20:54:19.308Z,15.96
2022-09-28T20:56:48.340Z,15.97
2022-09-28T20:59:16.408Z,16.05
2022-09-28T21:01:44.634Z,16.09
2022-09-28T21:04:12.994Z,16.10
2022-09-28T21:06:42.863Z,16.12
2022-09-28T21:09:12.769Z,16.11
2022-09-28T21:11:41.776Z,16.12
2022-09-28T21:14:10.972Z,16.08
2022-09-28T21:16:41.736Z,16.07
2022-09-28T21:19:09.855Z,16.06
2022-09-28T21:21:38.220Z,16.03
2022-09-28T21:24:06.553Z,16.03
2022-09-28T21:26:37.213Z,15.99
2022-09-28T21:29:06.693Z,15.97
2022-09-28T21:31:39.755Z,15.96
2022-09-28T21:34:08.718Z,15.98
2022-09-28T21:36:37.220Z,15.96
2022-09-28T21:39:10.099Z,15.92
2022-09-28T21:41:41.213Z,15.90
2022-09-28T21:44:10.683Z,15.92
2022-09-28T21:46:40.499Z,15.91
2022-09-28T21:49:12.756Z,15.93
2022-09-28T21:51:41.904Z,15.91
2022-09-28T21:57:19.644Z,15.88
2022-09-28T21:59:49.734Z,15.86
2022-09-28T22:02:18.493Z,15.81
2022-09-28T22:04:46.609Z,15.78
2022-09-28T22:07:14.762Z,15.78
2022-09-28T22:09:42.820Z,15.71
2022-09-28T22:12:10.901Z,15.69
2022-09-28T22:14:40.544Z,15.67
2022-09-28T22:17:08.513Z,15.63
2022-09-28T22:19:36.627Z,15.61
2022-09-28T22:22:04.545Z,15.57
2022-09-28T22:24:32.616Z,15.52
2022-09-28T22:27:01.495Z,15.49
2022-09-28T22:29:29.776Z,15.46
2022-09-28T22:32:02.364Z,15.45
2022-09-28T22:34:32.944Z,15.48
2022-09-28T22:37:01.421Z,15.46
2022-09-28T22:39:32.169Z,15.47
2022-09-28T22:42:02.301Z,15.49
2022-09-28T22:44:30.360Z,15.55
2022-09-28T22:46:59.978Z,15.52
2022-09-28T22:49:28.703Z,15.56
2022-09-28T22:51:56.781Z,15.56
2022-09-28T22:54:24.940Z,15.57
2022-09-28T22:56:53.031Z,15.55
2022-09-28T22:59:21.164Z,15.52
2022-09-28T23:01:49.533Z,15.53
2022-09-28T23:04:19.598Z,15.53
2022-09-28T23:06:47.811Z,15.53
2022-09-28T23:09:15.880Z,15.53
2022-09-28T23:11:44.495Z,15.50
2022-09-28T23:14:13.631Z,15.48
2022-09-28T23:16:41.851Z,15.44
2022-09-28T23:19:09.939Z,15.45
2022-09-28T23:21:39.827Z,15.43
2022-09-28T23:24:07.940Z,15.38
2022-09-28T23:26:37.058Z,15.36
2022-09-28T23:29:05.878Z,15.37
2022-09-28T23:31:35.090Z,15.41
2022-09-28T23:34:06.214Z,15.41
2022-09-28T23:36:35.160Z,15.41
2022-09-28T23:39:05.046Z,15.44
2022-09-28T23:41:33.153Z,15.43
2022-09-28T23:44:01.494Z,15.41
2022-09-28T23:46:29.506Z,15.39
2022-09-28T23:48:57.593Z,15.36
2022-09-28T23:51:26.130Z,15.32
2022-09-28T23:53:54.255Z,15.28
2022-09-28T23:56:23.891Z,15.28
2022-09-28T23:58:52.145Z,15.24
